Time;durP1;ratioP1;P1;durP2;ratioP2;P2;SDS_P1;SDS_P2;PMS_P1;PMS_P2;Temp;Humidity;BMP_temperature;BMP_pressure;BME280_temperature;BME280_humidity;BME280_pressure;Samples;Min_cycle;Max_cycle;Signal;HPM_P1;HPM_P2
2021/09/12 00:00:23;;;;;;;11.75;10.55;;;;;;;20.51;60.62;100888.81;5035712;27;103911;-46
2021/09/12 00:02:52;;;;;;;13.52;10.45;;;;;;;20.52;60.43;100881.31;5042029;27;102098;-47
2021/09/12 00:05:19;;;;;;;11.70;9.75;;;;;;;20.51;60.44;100886.03;5047404;27;102161;-46
2021/09/12 00:07:46;;;;;;;11.25;9.98;;;;;;;20.52;60.58;100889.63;5048023;27;102838;-47
2021/09/12 00:10:14;;;;;;;12.98;10.98;;;;;;;20.51;60.90;100883.28;5041359;27;104197;-47
2021/09/12 00:12:41;;;;;;;12.00;9.93;;;;;;;20.51;60.49;100883.28;5039149;27;102186;-47
2021/09/12 00:15:10;;;;;;;14.52;10.13;;;;;;;20.50;60.77;100887.19;5044767;27;102410;-46
2021/09/12 00:17:36;;;;;;;12.40;9.85;;;;;;;20.51;60.67;100883.28;5040673;27;102747;-47
2021/09/12 00:20:08;;;;;;;11.93;9.90;;;;;;;20.51;60.63;100876.94;5041279;27;104137;-46
2021/09/12 00:22:35;;;;;;;12.63;10.25;;;;;;;20.51;60.55;100868.66;5031126;27;102112;-47
2021/09/12 00:25:02;;;;;;;14.90;10.35;;;;;;;20.52;60.62;100870.28;5038477;27;102086;-47
2021/09/12 00:27:29;;;;;;;11.57;10.33;;;;;;;20.50;60.89;100869.81;5044028;27;102221;-47
2021/09/12 00:29:59;;;;;;;11.85;10.30;;;;;;;20.51;60.72;100871.41;5035523;27;103926;-47
2021/09/12 00:32:25;;;;;;;12.70;9.77;;;;;;;20.50;60.64;100872.56;5046057;27;102578;-46
2021/09/12 00:34:52;;;;;;;13.13;10.00;;;;;;;20.50;60.79;100881.66;5039855;27;102412;-46
2021/09/12 00:37:20;;;;;;;12.60;10.35;;;;;;;20.50;60.80;100876.16;5040318;27;102600;-46
2021/09/12 00:39:47;;;;;;;12.07;10.27;;;;;;;20.49;60.63;100877.25;5040558;27;103942;-47
2021/09/12 00:42:14;;;;;;;12.32;10.45;;;;;;;20.51;60.83;100871.41;5044421;27;102407;-47
2021/09/12 00:44:41;;;;;;;13.75;10.10;;;;;;;20.49;60.98;100873.69;5041957;27;102662;-47
2021/09/12 00:47:09;;;;;;;11.00;9.75;;;;;;;20.50;61.08;100876.16;5040353;27;102661;-46
2021/09/12 00:49:36;;;;;;;15.10;11.38;;;;;;;20.50;60.76;100872.56;5039381;27;104270;-46
2021/09/12 00:52:07;;;;;;;10.23;9.18;;;;;;;20.50;61.00;100880.88;5042838;27;103516;-46
2021/09/12 00:54:36;;;;;;;11.75;10.20;;;;;;;20.50;60.92;100880.88;5047230;27;102401;-46
2021/09/12 00:57:05;;;;;;;;;;;;;;;20.50;61.23;100876.16;5030305;27;102849;-46
2021/09/12 00:59:32;;;;;;;10.30;9.20;;;;;;;20.50;60.71;100880.88;5039219;27;103838;-46
2021/09/12 01:02:00;;;;;;;11.15;9.82;;;;;;;20.50;60.98;100878.09;5035963;27;102271;-46
2021/09/12 01:04:27;;;;;;;14.18;10.95;;;;;;;20.49;60.79;100873.69;5047238;27;102732;-47
2021/09/12 01:06:53;;;;;;;13.15;10.05;;;;;;;20.49;60.90;100873.69;5044973;27;102549;-46
2021/09/12 01:09:20;;;;;;;11.10;9.80;;;;;;;20.50;60.92;100875.34;5045343;27;104726;-47
2021/09/12 01:11:49;;;;;;;11.93;9.95;;;;;;;20.49;61.02;100874.50;5047203;27;102498;-47
2021/09/12 01:14:22;;;;;;;10.68;9.55;;;;;;;20.48;61.18;100872.06;5037680;27;102729;-46
2021/09/12 01:16:49;;;;;;;11.45;9.73;;;;;;;20.49;61.19;100874.50;5038152;27;102434;-47
2021/09/12 01:19:15;;;;;;;11.70;10.50;;;;;;;20.49;61.03;100879.22;5039940;27;104001;-47
2021/09/12 01:21:44;;;;;;;11.15;9.57;;;;;;;20.48;61.09;100880.34;5047874;27;102533;-47
2021/09/12 01:24:12;;;;;;;13.65;9.82;;;;;;;20.48;61.20;100872.06;5045847;27;102796;-47
2021/09/12 01:26:40;;;;;;;11.65;10.40;;;;;;;20.48;61.17;100880.34;5049809;27;102397;-47
2021/09/12 01:29:06;;;;;;;10.57;9.48;;;;;;;20.49;61.15;100884.75;5046536;27;103940;-47
2021/09/12 01:31:33;;;;;;;12.75;9.63;;;;;;;20.48;60.98;100883.13;5049232;27;102764;-47
2021/09/12 01:34:01;;;;;;;12.18;10.00;;;;;;;20.47;61.31;100887.03;5045793;27;102884;-47
2021/09/12 01:36:30;;;;;;;10.45;9.35;;;;;;;20.48;61.21;100888.63;5044122;27;102544;-46
2021/09/12 01:38:56;;;;;;;11.82;10.45;;;;;;;20.48;61.34;100888.63;5045088;27;103934;-47
2021/09/12 01:41:38;;;;;;;11.95;8.82;;;;;;;20.48;61.24;100883.13;5038103;27;102158;-46
2021/09/12 01:44:05;;;;;;;10.30;9.30;;;;;;;20.48;60.95;100880.34;5033200;27;102182;-46
2021/09/12 01:46:32;;;;;;;10.27;8.98;;;;;;;20.47;61.26;100878.72;5040477;27;102626;-46
2021/09/12 01:49:02;;;;;;;10.75;9.55;;;;;;;20.48;61.34;100877.59;5046415;27;104220;-47
2021/09/12 01:51:29;;;;;;;16.52;9.57;;;;;;;20.48;61.34;100883.91;5044086;27;102377;-46
2021/09/12 01:53:55;;;;;;;20.20;9.48;;;;;;;20.47;61.44;100882.31;5047918;27;102003;-47
2021/09/12 01:56:22;;;;;;;15.98;9.40;;;;;;;20.47;61.46;100881.50;5042406;27;102564;-47
2021/09/12 01:58:50;;;;;;;10.15;9.13;;;;;;;20.46;61.25;100875.16;5038894;27;103777;-46
2021/09/12 02:01:17;;;;;;;11.20;9.70;;;;;;;20.48;61.46;100881.16;5036369;27;102543;-47
2021/09/12 02:03:45;;;;;;;10.90;9.75;;;;;;;20.47;61.47;100875.97;5042397;27;102578;-47
2021/09/12 02:06:12;;;;;;;11.60;10.13;;;;;;;20.47;61.31;100884.25;5043923;27;103277;-46
2021/09/12 02:08:39;;;;;;;12.00;9.65;;;;;;;20.48;61.55;100883.13;5044142;27;104028;-47
2021/09/12 02:11:05;;;;;;;12.82;9.98;;;;;;;20.47;61.39;100887.03;5037221;27;102331;-46
2021/09/12 02:13:32;;;;;;;10.52;9.10;;;;;;;20.47;61.35;100889.78;5047205;27;102462;-46
2021/09/12 02:16:00;;;;;;;10.30;9.18;;;;;;;20.45;61.33;100879.09;5048132;27;102601;-46
2021/09/12 02:18:27;;;;;;;10.93;9.68;;;;;;;20.46;61.45;100885.41;5043438;27;103939;-46
2021/09/12 02:20:55;;;;;;;;;;;;;;;20.46;61.67;100890.94;5042601;27;102457;-46
2021/09/12 02:23:23;;;;;;;11.07;9.57;;;;;;;20.46;61.62;100890.94;5041593;27;102225;-47
2021/09/12 02:25:52;;;;;;;11.05;9.77;;;;;;;20.46;61.71;100890.94;5048007;27;102297;-46
2021/09/12 02:28:18;;;;;;;10.15;9.15;;;;;;;20.45;61.33;100884.63;5050536;27;103991;-47
2021/09/12 02:30:45;;;;;;;10.75;9.63;;;;;;;20.46;61.71;100885.41;5043804;27;102216;-46
2021/09/12 02:33:13;;;;;;;10.57;9.45;;;;;;;20.45;61.61;100894.84;5037778;27;102541;-47
2021/09/12 02:35:40;;;;;;;12.23;10.05;;;;;;;20.45;61.64;100894.84;5047367;27;102877;-46
2021/09/12 02:38:06;;;;;;;9.77;8.77;;;;;;;20.45;61.55;100890.13;5039485;27;103612;-47
2021/09/12 02:40:34;;;;;;;10.23;8.75;;;;;;;20.45;61.54;100886.53;5049878;27;102489;-46
2021/09/12 02:43:10;;;;;;;10.63;9.52;;;;;;;20.45;61.60;100883.78;5042679;27;102628;-46
2021/09/12 02:45:37;;;;;;;10.80;9.20;;;;;;;20.46;61.56;100882.66;5038833;27;102217;-47
2021/09/12 02:48:04;;;;;;;11.05;9.30;;;;;;;20.45;61.41;100878.25;5033573;27;103787;-47
2021/09/12 02:50:32;;;;;;;10.48;9.07;;;;;;;20.44;61.79;100876.63;5041810;27;103296;-47
2021/09/12 02:52:59;;;;;;;9.67;8.57;;;;;;;20.45;61.69;100881.00;5046717;27;102441;-46
2021/09/12 02:55:26;;;;;;;10.73;9.05;;;;;;;20.45;61.56;100883.78;5045794;27;102225;-47
2021/09/12 02:57:52;;;;;;;11.18;9.45;;;;;;;20.46;61.49;100879.88;5041829;27;103840;-46
2021/09/12 03:00:21;;;;;;;10.95;9.35;;;;;;;20.44;61.42;100885.72;5038607;27;102529;-47
2021/09/12 03:02:48;;;;;;;10.32;9.23;;;;;;;20.45;61.70;100883.78;5045306;27;102691;-47
2021/09/12 03:05:14;;;;;;;12.00;9.65;;;;;;;20.44;61.48;100882.16;5044095;27;102528;-47
2021/09/12 03:07:45;;;;;;;10.63;9.07;;;;;;;20.44;61.67;100882.97;5034432;27;103972;-46
2021/09/12 03:10:11;;;;;;;10.38;9.30;;;;;;;20.44;61.67;100884.94;5043552;27;102537;-47
2021/09/12 03:12:39;;;;;;;10.02;9.02;;;;;;;20.45;62.13;100894.84;5040736;27;102602;-47
2021/09/12 03:15:06;;;;;;;10.00;8.85;;;;;;;20.44;61.80;100902.31;5036288;27;102398;-46
2021/09/12 03:17:34;;;;;;;10.00;9.00;;;;;;;20.44;61.62;100890.47;5046571;27;104135;-46
2021/09/12 03:20:02;;;;;;;10.50;9.40;;;;;;;20.44;61.67;100909.81;5041587;27;102954;-47
2021/09/12 03:22:29;;;;;;;11.20;9.23;;;;;;;20.44;61.75;100904.28;5045320;27;103134;-46
2021/09/12 03:24:58;;;;;;;10.93;9.80;;;;;;;20.46;61.53;100907.53;5044806;27;102469;-47
2021/09/12 03:27:24;;;;;;;10.93;9.67;;;;;;;20.44;61.82;100907.84;5043694;27;103857;-47
2021/09/12 03:29:51;;;;;;;11.25;9.50;;;;;;;20.43;62.06;100908.19;5034374;27;102630;-46
2021/09/12 03:32:18;;;;;;;10.15;9.15;;;;;;;20.43;61.82;100906.25;5041114;27;102430;-46
2021/09/12 03:34:45;;;;;;;10.63;9.52;;;;;;;20.43;61.71;100909.00;5047003;27;102581;-47
2021/09/12 03:37:12;;;;;;;10.27;9.20;;;;;;;20.43;61.86;100910.97;5043372;27;103916;-47
2021/09/12 03:39:39;;;;;;;10.48;8.85;;;;;;;20.44;61.79;100921.66;5041066;27;102515;-47
2021/09/12 03:42:07;;;;;;;10.45;8.55;;;;;;;20.44;62.12;100920.88;5044566;27;102548;-47
2021/09/12 03:44:34;;;;;;;10.90;9.43;;;;;;;20.43;61.75;100916.50;5046372;27;102639;-56
2021/09/12 03:47:00;;;;;;;10.82;9.50;;;;;;;20.43;61.74;100917.28;5046027;27;103383;-47
2021/09/12 03:49:27;;;;;;;10.73;9.43;;;;;;;20.43;62.06;100919.25;5047497;27;103164;-53
2021/09/12 03:51:53;;;;;;;10.10;9.10;;;;;;;20.43;61.86;100919.25;5044553;27;102145;-48
2021/09/12 03:54:20;;;;;;;10.98;9.23;;;;;;;20.43;61.87;100913.72;5045529;27;102545;-47
2021/09/12 03:56:46;;;;;;;10.68;9.52;;;;;;;20.43;61.85;100919.25;5043593;27;103840;-47
2021/09/12 03:59:14;;;;;;;11.38;9.20;;;;;;;20.42;61.75;100918.44;5043324;27;102605;-46
2021/09/12 04:01:41;;;;;;;10.30;9.30;;;;;;;20.42;61.95;100923.97;5043530;27;102777;-46
2021/09/12 04:04:07;;;;;;;10.73;9.63;;;;;;;20.43;62.21;100919.25;5040210;27;102629;-46
2021/09/12 04:06:35;;;;;;;10.65;9.55;;;;;;;20.42;62.19;100923.16;5045047;27;103744;-47
2021/09/12 04:09:02;;;;;;;11.02;9.93;;;;;;;20.43;61.85;100922.00;5045542;27;102246;-47
2021/09/12 04:11:28;;;;;;;11.93;9.52;;;;;;;20.43;61.94;100916.50;5044645;27;102596;-46
2021/09/12 04:13:55;;;;;;;10.88;9.25;;;;;;;20.42;61.76;100914.88;5046666;27;102280;-46
2021/09/12 04:16:23;;;;;;;10.70;9.60;;;;;;;20.42;62.05;100920.41;5036919;27;104232;-46
2021/09/12 04:18:50;;;;;;;9.70;8.67;;;;;;;20.42;62.14;100917.63;5042365;27;102577;-46
2021/09/12 04:21:17;;;;;;;10.38;9.00;;;;;;;20.42;62.15;100921.22;5040204;27;103150;-46
2021/09/12 04:23:48;;;;;;;10.98;9.32;;;;;;;20.42;62.08;100923.97;5039019;27;102513;-47
2021/09/12 04:26:16;;;;;;;11.07;9.90;;;;;;;20.42;61.86;100918.44;5037895;27;104155;-46
2021/09/12 04:28:44;;;;;;;10.60;8.88;;;;;;;20.42;61.81;100923.16;5037484;27;102329;-47
2021/09/12 04:31:12;;;;;;;11.80;9.63;;;;;;;20.42;61.84;100920.41;5043623;27;102824;-46
2021/09/12 04:33:39;;;;;;;10.52;9.23;;;;;;;20.42;61.86;100923.16;5051793;27;102472;-47
2021/09/12 04:36:06;;;;;;;10.35;8.88;;;;;;;20.43;62.14;100930.31;5051157;27;103683;-47
2021/09/12 04:38:32;;;;;;;11.10;8.68;;;;;;;20.42;61.88;100923.16;5048011;27;105229;-46
2021/09/12 04:41:00;;;;;;;12.48;9.60;;;;;;;20.42;61.94;100918.44;5045673;27;102446;-46
2021/09/12 04:43:27;;;;;;;9.60;8.60;;;;;;;20.42;62.00;100920.41;5046766;27;102214;-46
2021/09/12 04:45:54;;;;;;;10.05;8.70;;;;;;;20.42;61.86;100909.34;5048284;27;103871;-46
2021/09/12 04:48:20;;;;;;;10.45;8.98;;;;;;;20.42;61.77;100917.63;5049210;27;102087;-46
2021/09/12 04:50:48;;;;;;;9.95;8.95;;;;;;;20.42;62.27;100912.09;5036739;27;102930;-47
2021/09/12 04:53:14;;;;;;;9.50;8.55;;;;;;;20.42;61.82;100909.34;5047551;27;102561;-46
2021/09/12 04:55:41;;;;;;;9.88;8.88;;;;;;;20.43;61.90;100908.19;5049254;27;103700;-47
2021/09/12 04:58:08;;;;;;;10.00;8.95;;;;;;;20.42;61.83;100906.59;5048444;27;102453;-47
2021/09/12 05:00:35;;;;;;;10.13;9.13;;;;;;;20.43;61.80;100913.72;5042654;27;103026;-47
2021/09/12 05:03:12;;;;;;;9.75;8.75;;;;;;;20.41;61.87;100911.28;5040921;27;102414;-46
2021/09/12 05:05:38;;;;;;;9.60;8.50;;;;;;;20.43;61.77;100916.50;5037083;27;103805;-47
2021/09/12 05:08:06;;;;;;;10.15;9.15;;;;;;;20.41;61.78;100919.56;5052213;27;102060;-47
2021/09/12 05:10:33;;;;;;;10.02;8.90;;;;;;;20.42;61.73;100918.44;5044506;27;102506;-47
2021/09/12 05:13:00;;;;;;;10.43;8.90;;;;;;;20.43;61.70;100914.53;5048396;27;102898;-47
2021/09/12 05:15:26;;;;;;;11.60;8.50;;;;;;;20.42;61.72;100923.16;5046201;27;105172;-47
2021/09/12 05:17:54;;;;;;;8.40;7.53;;;;;;;20.43;61.61;100913.72;5046426;27;103792;-46
2021/09/12 05:20:41;;;;;;;9.68;8.57;;;;;;;20.41;61.67;100916.81;5033538;27;102159;-46
2021/09/12 05:23:08;;;;;;;10.25;9.15;;;;;;;20.42;61.49;100917.63;5035439;27;103454;-46
2021/09/12 05:25:35;;;;;;;10.32;9.23;;;;;;;20.43;61.42;100913.72;5040131;27;103865;-46
2021/09/12 05:28:16;;;;;;;10.80;9.55;;;;;;;20.43;61.39;100914.53;5040398;27;102765;-47
2021/09/12 05:30:43;;;;;;;10.93;8.98;;;;;;;20.43;61.42;100911.75;5043183;27;102672;-47
2021/09/12 05:33:10;;;;;;;11.50;9.48;;;;;;;20.44;61.39;100918.09;5037154;27;102938;-47
2021/09/12 05:35:36;;;;;;;10.45;9.05;;;;;;;20.45;61.37;100914.19;5046916;27;103865;-46
2021/09/12 05:38:03;;;;;;;10.02;9.02;;;;;;;20.45;61.42;100911.41;5045726;27;103823;-47
2021/09/12 05:40:31;;;;;;;9.60;8.60;;;;;;;20.46;61.28;100913.88;5033104;27;103098;-46
2021/09/12 05:42:57;;;;;;;9.43;8.25;;;;;;;20.47;61.30;100914.69;5038207;27;102634;-46
2021/09/12 05:45:25;;;;;;;9.80;8.73;;;;;;;20.47;61.44;100915.47;5033048;27;103808;-47
2021/09/12 05:47:51;;;;;;;9.52;8.38;;;;;;;20.48;61.51;100910.75;5036288;27;102594;-46
2021/09/12 05:50:19;;;;;;;11.32;9.45;;;;;;;20.49;61.57;100909.63;5035214;27;102351;-46
2021/09/12 05:52:48;;;;;;;10.32;8.48;;;;;;;20.49;61.57;100913.22;5037968;27;102744;-46
2021/09/12 05:55:14;;;;;;;9.68;8.68;;;;;;;20.50;61.45;100919.56;5035674;27;104236;-46
2021/09/12 05:57:43;;;;;;;9.95;8.90;;;;;;;20.50;61.57;100920.38;5038559;27;103290;-46
2021/09/12 06:00:10;;;;;;;10.25;9.13;;;;;;;20.51;61.64;100921.19;5043759;27;102309;-46
2021/09/12 06:02:38;;;;;;;9.68;8.77;;;;;;;20.51;61.52;100910.13;5046302;27;102483;-46
2021/09/12 06:05:06;;;;;;;10.50;9.23;;;;;;;20.54;61.72;100923.28;5041235;27;103908;-46
2021/09/12 06:07:32;;;;;;;9.80;8.80;;;;;;;20.54;61.72;100920.53;5046014;27;102885;-47
2021/09/12 06:10:19;;;;;;;10.15;9.18;;;;;;;20.54;61.76;100926.06;5045475;27;102169;-46
2021/09/12 06:12:47;;;;;;;9.88;8.73;;;;;;;20.55;61.83;100922.13;5039695;27;102625;-47
2021/09/12 06:15:15;;;;;;;10.73;9.40;;;;;;;20.55;61.79;100913.84;5034547;27;102803;-46
2021/09/12 06:17:42;;;;;;;12.63;9.30;;;;;;;20.56;61.65;100915.47;5036823;27;103528;-46
2021/09/12 06:20:10;;;;;;;11.38;9.90;;;;;;;20.56;61.91;100921.00;5047757;27;102226;-46
2021/09/12 06:22:42;;;;;;;10.35;9.25;;;;;;;20.56;61.80;100913.53;5048926;27;103004;-46
2021/09/12 06:25:09;;;;;;;10.63;8.75;;;;;;;20.57;61.82;100920.66;5038970;27;104498;-47
2021/09/12 06:27:36;;;;;;;10.73;9.60;;;;;;;20.59;61.83;100923.09;5044236;27;102456;-46
2021/09/12 06:30:07;;;;;;;10.35;9.07;;;;;;;20.58;61.82;100919.50;5042394;27;101985;-46
2021/09/12 06:32:34;;;;;;;10.35;9.20;;;;;;;20.59;61.66;100914.78;5044586;27;102404;-46
2021/09/12 06:35:00;;;;;;;12.02;9.45;;;;;;;20.61;61.88;100920.81;5039880;27;104183;-46
2021/09/12 06:37:27;;;;;;;10.55;8.55;;;;;;;20.62;61.75;100926.00;5045684;27;102525;-47
2021/09/12 06:39:53;;;;;;;10.35;9.25;;;;;;;20.62;61.77;100911.34;5044044;27;103778;-46
2021/09/12 06:42:20;;;;;;;23.15;10.63;;;;;;;20.62;61.82;100923.22;5045446;27;102444;-46
2021/09/12 06:44:48;;;;;;;14.38;10.05;;;;;;;20.62;61.78;100922.41;5042235;27;103897;-46
2021/09/12 06:47:16;;;;;;;12.40;9.88;;;;;;;20.63;62.11;100924.06;5041059;27;102166;-46
2021/09/12 06:49:42;;;;;;;18.80;11.00;;;;;;;20.65;62.04;100927.28;5043439;27;102289;-53
2021/09/12 06:52:09;;;;;;;20.90;11.25;;;;;;;20.64;61.58;100926.47;5041880;27;103304;-53
2021/09/12 06:54:35;;;;;;;20.17;10.73;;;;;;;20.65;61.46;100927.28;5040676;27;103958;-52
2021/09/12 06:57:03;;;;;;;16.40;11.10;;;;;;;20.66;61.64;100928.91;5042231;27;102419;-52
2021/09/12 06:59:30;;;;;;;18.02;10.80;;;;;;;20.67;61.44;100924.19;5037665;27;102676;-52
2021/09/12 07:01:57;;;;;;;14.68;10.90;;;;;;;20.67;61.50;100927.78;5046543;27;102426;-52
2021/09/12 07:04:25;;;;;;;13.73;10.38;;;;;;;20.68;61.62;100932.16;5045797;27;103924;-52
2021/09/12 07:06:52;;;;;;;14.03;9.97;;;;;;;20.69;61.64;100928.22;5043634;27;102541;-52
2021/09/12 07:09:18;;;;;;;18.15;10.27;;;;;;;20.70;61.40;100929.88;5040973;27;102491;-52
2021/09/12 07:11:47;;;;;;;16.27;10.00;;;;;;;20.71;61.59;100937.03;5041252;27;102816;-52
2021/09/12 07:14:13;;;;;;;14.48;9.55;;;;;;;20.70;61.62;100932.66;5044794;27;103864;-51
2021/09/12 07:16:40;;;;;;;12.38;10.13;;;;;;;20.71;61.66;100928.72;5047611;27;102325;-51
2021/09/12 07:19:09;;;;;;;15.13;10.05;;;;;;;20.73;61.63;100928.38;5039644;27;102110;-52
2021/09/12 07:21:37;;;;;;;12.18;10.07;;;;;;;20.73;61.76;100926.41;5038537;27;102414;-53
2021/09/12 07:24:05;;;;;;;11.05;9.88;;;;;;;20.75;61.76;100929.66;5044176;27;104200;-52
2021/09/12 07:26:31;;;;;;;11.55;9.60;;;;;;;20.75;61.76;100926.91;5045347;27;102019;-53
2021/09/12 07:29:00;;;;;;;;;;;;;;;20.76;61.93;100928.50;5044970;27;102710;-52
2021/09/12 07:31:26;;;;;;;11.50;9.48;;;;;;;20.78;61.73;100925.44;5039795;27;102289;-52
2021/09/12 07:33:53;;;;;;;12.57;9.43;;;;;;;20.78;61.81;100925.44;5039672;27;103998;-52
2021/09/12 07:36:19;;;;;;;10.90;8.85;;;;;;;20.80;61.98;100929.47;5041237;27;102495;-52
2021/09/12 07:38:48;;;;;;;14.25;9.63;;;;;;;20.80;62.23;100923.94;5043956;27;102222;-52
2021/09/12 07:41:14;;;;;;;11.37;9.43;;;;;;;20.81;61.78;100931.09;5042737;27;102387;-52
2021/09/12 07:43:40;;;;;;;11.43;9.50;;;;;;;20.81;61.86;100927.53;5037736;27;104257;-52
2021/09/12 07:46:07;;;;;;;13.68;9.70;;;;;;;20.82;61.97;100924.41;5038852;27;102645;-52
2021/09/12 07:48:33;;;;;;;12.65;8.98;;;;;;;20.84;62.02;100922.13;5039158;27;102564;-52
2021/09/12 07:51:02;;;;;;;10.60;9.50;;;;;;;20.85;62.09;100925.72;5042701;27;102471;-52
2021/09/12 07:53:29;;;;;;;13.48;10.38;;;;;;;20.86;62.16;100922.59;5041995;27;107938;-51
2021/09/12 07:55:57;;;;;;;10.75;9.52;;;;;;;20.87;62.05;100918.69;5032994;27;102175;-51
2021/09/12 07:58:24;;;;;;;12.10;9.35;;;;;;;20.88;62.20;100922.28;5040054;27;102115;-52
2021/09/12 08:00:50;;;;;;;12.00;9.57;;;;;;;20.88;62.27;100914.78;5040472;27;102735;-51
2021/09/12 08:03:18;;;;;;;13.15;9.75;;;;;;;20.90;62.26;100913.63;5040250;27;104120;-53
2021/09/12 08:05:45;;;;;;;12.63;9.63;;;;;;;20.91;62.03;100909.72;5040040;27;102608;-52
2021/09/12 08:08:11;;;;;;;11.68;9.63;;;;;;;20.92;62.13;100919.66;5042131;27;102730;-51
2021/09/12 08:10:38;;;;;;;12.70;9.57;;;;;;;20.92;61.72;100911.34;5041628;27;102543;-52
2021/09/12 08:13:06;;;;;;;12.30;9.68;;;;;;;20.94;62.07;100915.38;5041697;27;104071;-52
2021/09/12 08:15:33;;;;;;;11.85;9.45;;;;;;;20.96;62.09;100915.06;5043900;27;102407;-52
2021/09/12 08:17:59;;;;;;;12.77;9.38;;;;;;;20.96;62.13;100915.06;5042976;27;102309;-51
2021/09/12 08:20:29;;;;;;;13.43;9.50;;;;;;;20.95;62.25;100905.91;5043290;27;102614;-53
2021/09/12 08:22:55;;;;;;;10.55;9.15;;;;;;;20.97;62.15;100905.59;5045170;27;103948;-52
2021/09/12 08:25:25;;;;;;;11.63;9.27;;;;;;;20.97;62.19;100905.59;5035170;27;102627;-52
2021/09/12 08:27:52;;;;;;;11.98;9.80;;;;;;;20.98;62.17;100901.69;5043296;27;103299;-51
2021/09/12 08:30:20;;;;;;;10.38;8.88;;;;;;;20.99;62.02;100909.66;5045482;27;102520;-51
2021/09/12 08:32:47;;;;;;;10.63;9.53;;;;;;;20.99;62.16;100904.13;5043069;27;103959;-52
2021/09/12 08:35:13;;;;;;;11.55;10.23;;;;;;;20.99;62.06;100904.13;5050592;27;102364;-52
2021/09/12 08:37:40;;;;;;;12.60;9.75;;;;;;;21.01;62.19;100901.00;5050253;27;102379;-52
2021/09/12 08:40:08;;;;;;;11.98;9.93;;;;;;;21.01;62.17;100906.53;5042726;27;102548;-52
2021/09/12 08:42:36;;;;;;;10.63;9.63;;;;;;;21.02;62.12;100905.38;5040610;27;103724;-51
2021/09/12 08:45:04;;;;;;;10.75;9.63;;;;;;;21.03;62.20;100904.25;5041749;27;102762;-52
2021/09/12 08:47:33;;;;;;;10.65;9.25;;;;;;;21.02;62.20;100903.44;5047377;27;102651;-51
2021/09/12 08:50:00;;;;;;;12.30;9.63;;;;;;;21.04;62.26;100892.84;5048963;27;102616;-51
2021/09/12 08:52:27;;;;;;;11.85;8.93;;;;;;;21.04;62.09;100905.88;5048051;27;103908;-51
2021/09/12 08:54:53;;;;;;;12.90;9.77;;;;;;;21.05;62.26;100896.41;5046184;27;102548;-51
2021/09/12 08:57:20;;;;;;;11.70;9.40;;;;;;;21.05;62.20;100896.41;5045357;27;102659;-51
2021/09/12 08:59:49;;;;;;;12.07;10.43;;;;;;;21.05;62.27;100890.88;5043984;27;102713;-52
2021/09/12 09:02:23;;;;;;;11.90;9.60;;;;;;;21.05;62.15;100897.22;5042776;27;103753;-51
2021/09/12 09:04:59;;;;;;;11.13;9.35;;;;;;;21.06;62.28;100903.56;5037764;27;102387;-51
2021/09/12 09:07:29;;;;;;;12.30;8.95;;;;;;;21.06;62.28;100892.50;5039264;27;102535;-51
2021/09/12 09:09:57;;;;;;;11.23;9.73;;;;;;;21.06;62.22;100895.25;5044899;27;102376;-51
2021/09/12 09:12:27;;;;;;;9.77;8.75;;;;;;;21.07;62.21;100888.59;5038979;27;102742;-51
2021/09/12 09:15:12;;;;;;;12.63;9.40;;;;;;;21.08;62.33;100895.75;5045946;27;102239;-51
2021/09/12 09:17:41;;;;;;;11.80;8.75;;;;;;;21.07;62.08;100889.41;5029385;27;102184;-52
2021/09/12 09:20:10;;;;;;;;;;;;;;;21.07;62.20;100889.41;5039072;27;103423;-52
2021/09/12 09:22:38;;;;;;;11.15;10.05;;;;;;;21.07;62.19;100888.59;5042885;27;103708;-51
2021/09/12 09:25:10;;;;;;;10.35;9.30;;;;;;;21.07;62.11;100883.88;5033632;27;102464;-51
2021/09/12 09:27:58;;;;;;;12.80;10.18;;;;;;;21.08;62.20;100884.69;5040252;27;102736;-51
2021/09/12 09:30:26;;;;;;;10.90;9.80;;;;;;;21.07;62.14;100881.09;5049818;27;103457;-51
2021/09/12 09:32:52;;;;;;;10.48;9.18;;;;;;;21.07;61.99;100881.09;5045964;27;103989;-51
2021/09/12 09:35:25;;;;;;;10.52;9.52;;;;;;;21.08;62.01;100879.16;5038192;27;102254;-51
2021/09/12 09:37:53;;;;;;;11.55;9.60;;;;;;;21.08;62.11;100873.59;5049382;27;102692;-52
2021/09/12 09:40:20;;;;;;;10.48;9.30;;;;;;;21.08;62.20;100884.69;5051660;27;102587;-51
2021/09/12 09:42:46;;;;;;;10.65;9.55;;;;;;;21.09;62.14;100872.44;5040393;27;103925;-52
2021/09/12 09:45:14;;;;;;;10.90;9.77;;;;;;;21.08;62.39;100884.69;5046031;27;102465;-52
2021/09/12 09:47:43;;;;;;;13.67;9.90;;;;;;;21.08;62.10;100879.94;5038471;27;102627;-52
2021/09/12 09:50:15;;;;;;;10.15;9.10;;;;;;;21.08;62.14;100879.16;5047447;27;102254;-51
2021/09/12 09:52:47;;;;;;;10.20;8.80;;;;;;;21.08;62.12;100876.38;5041522;27;103900;-51
2021/09/12 09:55:15;;;;;;;11.50;9.77;;;;;;;21.08;62.00;100873.59;5039194;27;102190;-51
2021/09/12 09:57:43;;;;;;;11.13;9.85;;;;;;;21.08;61.94;100868.06;5037793;27;102431;-51
2021/09/12 10:00:10;;;;;;;10.15;9.07;;;;;;;21.08;61.90;100862.53;5049870;27;102375;-51
2021/09/12 10:02:38;;;;;;;10.55;9.15;;;;;;;21.08;61.56;100874.41;5047302;27;103909;-51
2021/09/12 10:05:07;;;;;;;10.68;9.57;;;;;;;21.07;61.95;100874.75;5043177;27;102685;-51
2021/09/12 10:07:37;;;;;;;10.18;9.07;;;;;;;21.07;61.82;100870.03;5046691;27;102551;-51
2021/09/12 10:10:07;;;;;;;10.48;9.40;;;;;;;21.08;61.93;100868.06;5053534;27;102345;-51
2021/09/12 10:12:35;;;;;;;10.82;9.73;;;;;;;21.07;61.97;100863.69;5049169;27;103911;-51
2021/09/12 10:15:04;;;;;;;10.60;9.50;;;;;;;21.07;61.86;100869.22;5047896;27;102526;-51
2021/09/12 10:17:33;;;;;;;;;;;;;;;21.07;62.09;100866.47;5045323;27;102405;-51
2021/09/12 10:20:07;;;;;;;10.88;9.77;;;;;;;21.06;61.91;100859.28;5052290;27;102613;-51
2021/09/12 10:22:50;;;;;;;10.73;9.70;;;;;;;21.07;62.09;100852.63;5043290;27;104574;-51
2021/09/12 10:25:20;;;;;;;10.38;9.38;;;;;;;21.06;61.83;100843.53;5037477;27;102446;-51
2021/09/12 10:27:48;;;;;;;10.75;9.68;;;;;;;21.05;61.84;100841.88;5037167;27;102468;-51
2021/09/12 10:30:23;;;;;;;10.52;9.43;;;;;;;21.06;61.89;100845.47;5045449;27;103471;-51
2021/09/12 10:32:50;;;;;;;12.70;10.15;;;;;;;21.06;61.91;100845.47;5037813;27;103864;-51
2021/09/12 10:35:20;;;;;;;9.75;8.85;;;;;;;21.06;61.86;100842.69;5046709;27;102087;-51
2021/09/12 10:37:57;;;;;;;11.55;10.35;;;;;;;21.05;61.98;100841.06;5047150;27;102484;-50
2021/09/12 10:40:25;;;;;;;11.07;9.55;;;;;;;21.05;62.03;100841.06;5048610;27;102519;-51
2021/09/12 10:42:52;;;;;;;11.07;9.95;;;;;;;21.05;61.92;100833.59;5044336;27;103512;-51
2021/09/12 10:45:25;;;;;;;10.55;9.45;;;;;;;21.05;62.05;100825.28;5041558;27;102516;-51
2021/09/12 10:48:12;;;;;;;9.95;8.98;;;;;;;21.04;61.83;100823.66;5032426;27;102580;-51
2021/09/12 10:50:43;;;;;;;10.57;9.57;;;;;;;21.04;61.87;100831.16;5037781;27;102233;-51
2021/09/12 10:53:10;;;;;;;10.77;9.70;;;;;;;21.04;61.84;100833.94;5036214;27;103833;-51
2021/09/12 10:56:04;;;;;;;10.55;9.55;;;;;;;21.03;61.83;100827.59;5037617;27;102504;-51
2021/09/12 10:58:32;;;;;;;10.43;9.43;;;;;;;21.03;61.97;100833.13;5030148;27;102127;-51
2021/09/12 11:01:00;;;;;;;10.95;9.95;;;;;;;21.03;62.06;100826.78;5042607;27;102469;-51
2021/09/12 11:03:29;;;;;;;10.80;9.73;;;;;;;21.03;61.98;100822.06;5045765;27;104033;-51
2021/09/12 11:05:56;;;;;;;10.43;9.43;;;;;;;21.04;61.97;100817.34;5047373;27;102879;-51
2021/09/12 11:08:33;;;;;;;10.88;9.77;;;;;;;21.03;62.08;100826.78;5045054;27;102727;-51
2021/09/12 11:11:03;;;;;;;10.75;9.65;;;;;;;21.03;61.93;100819.28;5036856;27;102425;-51
2021/09/12 11:13:32;;;;;;;10.82;9.73;;;;;;;21.04;61.89;100822.88;5040953;27;103495;-51